Flight Track Log - Related Links

Times and Time Zones

All times are in EDT time to prevent confusion due to time zone crossing. See the UAL810 flight status page for this flight to view local times or setup timezone preferences in your user account.

Time Position Orientation Groundspeed Altitude Reporting Facility
EDT Latitude Longitude Course Direction KTS MPH feet Rate Location/Type
Tue 10:13:27 PM 37.6333 -122.3667 137° Southeast 140 161 1,000  Level Northern Cal TRACON
Tue 10:14:27 PM 37.6833 -122.3667 360° North 202 232 2,800 2,521 Climbing Northern Cal TRACON
Tue 10:15:26 PM 37.7167 -122.4167 310° West 251 289 6,000 3,277 Climbing Northern Cal TRACON
Tue 10:16:00 PM 37.3692 -122.2497 136° Southeast  Level FlightAware Approximate
Tue 10:16:26 PM 37.6500 -122.4500 202° Southwest 305 351 9,300  Level Northern Cal TRACON
Tue 10:17:00 PM 37.2839 -122.1344 122° Southeast  Level FlightAware Approximate
Tue 10:17:38 PM 37.5894 -122.3544 129° Southeast 330 380 12,400  Level Oakland Center
Tue 10:18:00 PM 37.2022 -122.0165 137° Southeast  Level FlightAware Approximate
Tue 10:18:39 PM 37.5258 -122.2608 131° Southeast 349 402 15,300  Level Oakland Center
Tue 10:19:40 PM 37.4572 -122.1628 131° Southeast 371 427 18,000 2,656 Climbing Oakland Center
Tue 10:20:41 PM 37.3869 -122.0594 131° Southeast 388 447 20,700 2,459 Climbing Oakland Center
Tue 10:21:42 PM 37.3131 -121.9539 131° Southeast 401 461 23,000 2,016 Climbing Oakland Center
Tue 10:22:43 PM 37.2378 -121.8442 131° Southeast 413 475 24,800 2,016 Climbing Oakland Center
Tue 10:23:44 PM 37.1544 -121.7228 131° Southeast 428 493 27,100 2,016 Climbing Oakland Center
Tue 10:24:45 PM 37.0631 -121.5947 132° Southeast 437 503 28,900 1,672 Climbing Oakland Center
Tue 10:25:46 PM 36.9808 -121.4767 131° Southeast 449 517 30,500 1,770 Climbing Oakland Center
Tue 10:26:47 PM 36.8989 -121.3575 131° Southeast 452 520 32,500 1,770 Climbing Oakland Center
Tue 10:27:48 PM 36.8183 -121.2417 131° Southeast 446 513 34,100 1,623 Climbing Oakland Center
Tue 10:28:49 PM 36.7442 -121.1428 133° Southeast 440 506 35,800 1,426 Climbing Oakland Center
Tue 10:29:50 PM 36.6492 -121.0081 131° Southeast 432 497 37,000 590 Climbing Oakland Center
Tue 10:30:51 PM 36.5700 -120.8961 131° Southeast 430 495 37,000  Level Oakland Center
Tue 10:31:52 PM 36.4908 -120.7847 131° Southeast 430 495 37,000  Level Oakland Center
Tue 10:32:53 PM 36.4108 -120.6731 132° Southeast 432 497 37,000  Level Oakland Center
Tue 10:33:54 PM 36.3311 -120.5631 132° Southeast 429 494 37,000  Level Oakland Center
Tue 10:34:55 PM 36.2492 -120.4517 132° Southeast 441 507 37,000  Level Oakland Center
Tue 10:35:56 PM 36.1686 -120.3411 132° Southeast 428 493 37,000  Level Oakland Center
Tue 10:36:57 PM 36.0875 -120.2286 132° Southeast 435 501 37,000  Level Oakland Center
Tue 10:39:06 PM 35.9114 -119.9908 132° Southeast 434 499 37,000  Level Los Angeles Center
Tue 10:40:01 PM 35.8461 -119.9033 133° Southeast 429 494 37,000  Level Oakland Center
Tue 10:42:03 PM 35.6850 -119.6858 132° Southeast 429 494 37,000  Level Oakland Center
Tue 10:43:04 PM 35.5878 -119.5550 132° Southeast 429 494 37,000  Level Oakland Center
Tue 10:44:05 PM 35.5069 -119.4469 133° Southeast 429 494 37,000  Level Oakland Center
Tue 10:45:06 PM 35.4253 -119.3400 133° Southeast 428 493 37,000  Level Oakland Center
Tue 10:46:17 PM 35.3319 -119.2094 131° Southeast 428 493 37,000  Level Los Angeles Center
Tue 10:47:19 PM 35.2492 -119.1022 133° Southeast 430 495 37,000  Level Los Angeles Center
Tue 10:48:21 PM 35.1678 -118.9939 133° Southeast 432 497 37,000  Level Los Angeles Center
Tue 10:49:23 PM 35.0850 -118.8861 133° Southeast 434 499 37,000  Level Los Angeles Center
Tue 10:50:24 PM 35.0014 -118.7761 133° Southeast 440 506 37,000  Level Los Angeles Center
Tue 10:52:28 PM 34.8344 -118.5578 133° Southeast 446 513 37,000  Level Los Angeles Center
Tue 10:53:29 PM 34.7392 -118.4356 133° Southeast 443 510 37,000  Level Los Angeles Center
Tue 10:54:31 PM 34.6539 -118.3267 134° Southeast 446 513 37,000  Level Los Angeles Center
Tue 10:55:33 PM 34.5619 -118.2064 133° Southeast 446 513 37,000  Level Los Angeles Center
Tue 10:56:34 PM 34.4864 -118.1089 133° Southeast 443 510 37,000  Level Los Angeles Center
Tue 10:57:36 PM 34.4069 -117.9550 122° Southeast 455 524 37,000  Level Los Angeles Center
Tue 10:58:37 PM 34.3758 -117.8208 106° East 448 516 37,000  Level Los Angeles Center
Tue 10:59:39 PM 34.3397 -117.6722 106° East 457 526 37,000  Level Los Angeles Center
Tue 11:00:41 PM 34.3058 -117.5236 105° East 456 525 37,000  Level Los Angeles Center
Tue 11:01:42 PM 34.2642 -117.3475 106° East 455 524 37,000  Level Los Angeles Center
Tue 11:02:44 PM 34.2275 -117.1986 107° East 459 528 37,000  Level Los Angeles Center
Tue 11:03:46 PM 34.1892 -117.0467 107° East 461 531 37,000  Level Los Angeles Center
Tue 11:04:48 PM 34.1544 -116.8997 106° East 460 529 37,000  Level Los Angeles Center
Tue 11:05:49 PM 34.1219 -116.7567 105° East 457 526 37,000  Level Los Angeles Center
Tue 11:06:51 PM 34.0881 -116.6175 106° East 463 533 37,000  Level Los Angeles Center
Tue 11:07:52 PM 34.0442 -116.4411 107° East 457 526 37,000  Level Los Angeles Center
Tue 11:08:54 PM 34.0075 -116.2931 107° East 458 527 37,000  Level Los Angeles Center
Tue 11:09:56 PM 33.9719 -116.1467 106° East 455 524 37,000  Level Los Angeles Center
Tue 11:10:58 PM 33.9350 -115.9994 107° East 457 526 37,000  Level Los Angeles Center
Tue 11:11:59 PM 33.8961 -115.8500 107° East 468 539 37,000  Level Los Angeles Center
Tue 11:13:01 PM 33.8581 -115.7017 107° East 464 534 37,000  Level Los Angeles Center
Tue 11:14:03 PM 33.8214 -115.5547 107° East 460 529 37,000  Level Los Angeles Center
Tue 11:15:04 PM 33.7825 -115.4069 108° East 463 533 37,000  Level Los Angeles Center
Tue 11:16:06 PM 33.7369 -115.2294 107° East 461 531 37,000  Level Los Angeles Center
Tue 11:17:08 PM 33.6986 -115.0817 107° East 463 533 37,000  Level Los Angeles Center
Tue 11:18:09 PM 33.6606 -114.9344 107° East 462 532 37,000  Level Los Angeles Center
Tue 11:19:11 PM 33.6228 -114.7878 107° East 461 531 37,000  Level Los Angeles Center
Tue 11:20:13 PM 33.5822 -114.6406 108° East 464 534 37,000  Level Los Angeles Center
Tue 11:20:42 PM 33.5658 -114.5658 105° East 464 534 37,000  Level Albuquerque Center
Tue 11:21:43 PM 33.5289 -114.4167 107° East 466 536 37,000  Level Albuquerque Center
Tue 11:22:45 PM 33.5003 -114.2675 103° East 460 529 37,000  Level Albuquerque Center
Tue 11:23:46 PM 33.4697 -114.1181 104° East 461 531 37,000  Level Albuquerque Center
Tue 11:24:47 PM 33.4397 -113.9678 103° East 463 533 37,000  Level Albuquerque Center
Tue 11:25:48 PM 33.4133 -113.8158 102° East 464 534 37,000  Level Albuquerque Center
Tue 11:26:50 PM 33.3744 -113.6347 104° East 467 537 37,000  Level Albuquerque Center
Tue 11:27:51 PM 33.3311 -113.4872 109° East 470 541 37,000  Level Albuquerque Center
Tue 11:28:52 PM 33.2908 -113.3367 108° East 472 543 37,000  Level Albuquerque Center
Tue 11:29:53 PM 33.2494 -113.1886 108° East 471 542 37,000  Level Albuquerque Center
Tue 11:30:55 PM 33.2078 -113.0411 109° East 469 540 37,000  Level Albuquerque Center
Tue 11:31:56 PM 33.1658 -112.8931 109° East 470 541 37,000  Level Albuquerque Center
Tue 11:32:57 PM 33.1242 -112.7444 108° East 471 542 37,000  Level Albuquerque Center
Tue 11:33:59 PM 33.0814 -112.5964 109° East 471 542 37,000  Level Albuquerque Center
Tue 11:35:00 PM 33.0394 -112.4486 109° East 470 541 37,000  Level Albuquerque Center
Tue 11:36:01 PM 32.9989 -112.3000 108° East 471 542 37,000  Level Albuquerque Center
Tue 11:37:02 PM 32.9533 -112.1314 108° East 475 547 37,000  Level Albuquerque Center
Tue 11:38:04 PM 32.9122 -111.9842 108° East 473 544 37,000  Level Albuquerque Center
Tue 11:39:05 PM 32.8714 -111.8367 108° East 472 543 37,000  Level Albuquerque Center
Tue 11:40:06 PM 32.8308 -111.6897 108° East 471 542 37,000  Level Albuquerque Center
Tue 11:41:07 PM 32.7892 -111.5419 109° East 474 545 37,000  Level Albuquerque Center
Tue 11:42:08 PM 32.7478 -111.3950 108° East 472 543 37,000  Level Albuquerque Center
Tue 11:43:10 PM 32.7050 -111.2472 109° East 476 548 37,000  Level Albuquerque Center
Tue 11:44:11 PM 32.6542 -111.0700 109° East 474 545 37,000  Level Albuquerque Center
Tue 11:45:12 PM 32.6108 -110.9217 109° East 477 549 37,000  Level Albuquerque Center
Tue 11:46:13 PM 32.5689 -110.7750 109° East 473 544 37,000  Level Albuquerque Center
Tue 11:47:14 PM 32.5267 -110.6275 109° East 475 547 37,000  Level Albuquerque Center
Tue 11:48:15 PM 32.4964 -110.4767 103° East 473 544 37,000  Level Albuquerque Center
Tue 11:49:17 PM 32.4756 -110.3308 100° East 475 547 37,000  Level Albuquerque Center
Tue 11:50:18 PM 32.4486 -110.1478 100° East 475 547 37,000  Level Albuquerque Center
Tue 11:51:19 PM 32.4261 -109.9942 100° East 479 551 37,000  Level Albuquerque Center
Tue 11:52:20 PM 32.4022 -109.8406 100° East 480 552 37,000  Level Albuquerque Center
Tue 11:53:21 PM 32.3778 -109.6864 101° East 482 555 37,000  Level Albuquerque Center
Tue 11:54:22 PM 32.3544 -109.5339 100° East 480 552 37,000  Level Albuquerque Center
Tue 11:55:23 PM 32.3308 -109.3808 100° East 479 551 37,000  Level Albuquerque Center
Tue 11:56:24 PM 32.3083 -109.2275 100° East 479 551 37,000  Level Albuquerque Center
Tue 11:57:25 PM 32.2800 -109.0461 100° East 476 548 37,000  Level Albuquerque Center
Tue 11:58:27 PM 32.2553 -108.8933 101° East 479 551 37,000  Level Albuquerque Center
Tue 11:59:27 PM 32.2317 -108.7414 100° East 477 549 37,000  Level Albuquerque Center
Wed 12:00:28 AM 32.2081 -108.5903 100° East 477 549 37,000  Level Albuquerque Center
Wed 12:01:29 AM 32.1811 -108.4200 101° East 477 549 37,000  Level Albuquerque Center
Wed 12:02:30 AM 32.1578 -108.2869 102° East 477 549 37,000  Level Albuquerque Center
Wed 12:03:31 AM 32.1311 -108.1142 100° East 478 550 37,000  Level Albuquerque Center
Wed 12:04:32 AM 32.1064 -107.9622 101° East 475 547 37,000  Level Albuquerque Center
Wed 12:05:33 AM 32.0808 -107.8097 101° East 476 548 37,000  Level Albuquerque Center
Wed 12:06:34 AM 32.0556 -107.6569 101° East 477 549 37,000  Level Albuquerque Center
Wed 12:07:35 AM 32.0294 -107.5053 101° East 477 549 37,000  Level Albuquerque Center
Wed 12:08:36 AM 32.0044 -107.3531 101° East 479 551 37,000  Level Albuquerque Center
Wed 12:09:37 AM 31.9783 -107.2003 101° East 480 552 37,000  Level Albuquerque Center
Wed 12:10:38 AM 31.9472 -107.0183 101° East 478 550 37,000  Level Albuquerque Center
Wed 12:11:39 AM 31.9203 -106.8661 102° East 479 551 37,000 -49 Level Albuquerque Center
Wed 12:12:40 AM 31.8936 -106.7147 102° East 478 550 36,900  Descending Albuquerque Center
Wed 12:13:40 AM 31.8661 -106.5625 102° East 477 549 37,000  Climbing Albuquerque Center
Wed 12:14:41 AM 31.8394 -106.4081 101° East 479 551 36,900  Descending Albuquerque Center
Wed 12:15:42 AM 31.8131 -106.2550 101° East 479 551 37,000 49 Climbing Albuquerque Center
Wed 12:16:43 AM 31.7942 -106.1008 98° East 476 548 37,000  Level Albuquerque Center
Wed 12:17:44 AM 31.7750 -105.9444 98° East 482 555 37,000  Level Albuquerque Center
Wed 12:18:45 AM 31.7558 -105.7900 98° East 478 550 37,000  Level Albuquerque Center
Wed 12:19:45 AM 31.7378 -105.6333 98° East 483 556 37,000 -50 Level Albuquerque Center
Wed 12:20:46 AM 31.7175 -105.4792 99° East 479 551 36,900  Descending Albuquerque Center
Wed 12:21:47 AM 31.6994 -105.3206 98° East 487 560 37,000 49 Climbing Albuquerque Center
Wed 12:22:48 AM 31.6806 -105.1653 98° East 482 555 37,000  Level Albuquerque Center
Wed 12:23:48 AM 31.6597 -105.0081 99° East 484 557 37,000  Level Albuquerque Center
Wed 12:24:49 AM 31.6408 -104.8531 98° East 481 554 37,000 -49 Level Albuquerque Center
Wed 12:25:50 AM 31.6208 -104.6992 99° East 477 549 36,900 -49 Descending Albuquerque Center
Wed 12:26:51 AM 31.6019 -104.5478 98° East 472 543 36,900  Level Albuquerque Center
Wed 12:27:51 AM 31.5822 -104.3961 99° East 469 540 36,900 50 Level Albuquerque Center
Wed 12:28:52 AM 31.5625 -104.2461 99° East 467 537 37,000 49 Climbing Albuquerque Center
Wed 12:29:53 AM 31.5378 -104.0650 99° East 468 539 37,000  Level Albuquerque Center
Wed 12:30:53 AM 31.5183 -103.9147 99° East 467 537 37,000  Level Albuquerque Center
Wed 12:31:54 AM 31.4978 -103.7653 99° East 467 537 37,000  Level Albuquerque Center
Wed 12:32:55 AM 31.4767 -103.6100 99° East 463 533 37,000 -49 Level Albuquerque Center
Wed 12:33:56 AM 31.4561 -103.4619 99° East 461 531 36,900 -149 Descending Albuquerque Center
Wed 12:34:56 AM 31.4375 -103.3142 98° East 460 529 36,700 -595 Descending Albuquerque Center
Wed 12:35:57 AM 31.4189 -103.1669 98° East 459 528 35,700 -836 Descending Albuquerque Center
Wed 12:36:58 AM 31.4003 -103.0217 98° East 455 524 35,000 -347 Descending Albuquerque Center
Wed 12:37:58 AM 31.3828 -102.8789 98° East 448 516 35,000  Level Albuquerque Center
Wed 12:38:59 AM 31.3639 -102.7342 99° East 449 517 35,000  Level Albuquerque Center
Wed 12:40:00 AM 31.3447 -102.5864 99° East 455 524 35,000  Level Albuquerque Center
Wed 12:41:00 AM 31.3225 -102.4186 99° East 495 570 35,000  Level Albuquerque Center
Wed 12:42:01 AM 31.3028 -102.2636 98° East 490 564 35,000  Level Albuquerque Center
Wed 12:43:01 AM 31.2822 -102.1106 99° East 482 555 35,000  Level Albuquerque Center
Wed 12:44:02 AM 31.2617 -101.9567 99° East 482 555 35,000 -49 Level Albuquerque Center
Wed 12:45:03 AM 31.2397 -101.7931 99° East 480 552 34,900  Descending Albuquerque Center
Wed 12:46:03 AM 31.2158 -101.6400 100° East 480 552 35,000 66 Climbing Albuquerque Center
Wed 12:46:34 AM 31.2061 -101.5781 100° East 482 555 35,000  Level Houston Center
Wed 12:47:34 AM 31.1800 -101.4239 101° East 485 558 35,000  Level Houston Center
Wed 12:48:35 AM 31.1536 -101.2772 102° East 484 557 35,000  Level Houston Center
Wed 12:49:35 AM 31.1264 -101.1197 101° East 492 566 35,000  Level Houston Center
Wed 12:50:35 AM 31.1003 -100.9628 101° East 493 567 35,000  Level Houston Center
Wed 12:51:35 AM 31.0725 -100.8075 102° East 489 563 35,000  Level Houston Center
Wed 12:52:36 AM 31.0461 -100.6522 101° East 488 562 35,000 -50 Level Houston Center
Wed 12:53:36 AM 31.0181 -100.4997 102° East 485 558 34,900  Descending Houston Center
Wed 12:54:36 AM 30.9908 -100.3444 102° East 487 560 35,000 50 Climbing Houston Center
Wed 12:55:36 AM 30.9625 -100.1922 102° East 480 552 35,000  Level Houston Center
Wed 12:56:37 AM 30.9342 -100.0383 102° East 484 557 35,000  Level Houston Center
Wed 12:57:37 AM 30.9069 -99.8844 102° East 484 557 35,000  Level Houston Center
Wed 12:58:37 AM 30.8794 -99.7322 102° East 481 554 35,000  Level Houston Center
Wed 12:59:38 AM 30.8506 -99.5803 102° East 480 552 35,000  Level Houston Center
Wed 01:00:38 AM 30.8219 -99.4264 102° East 484 557 35,000  Level Houston Center
Wed 01:01:38 AM 30.7928 -99.2739 103° East 483 556 35,000  Level Houston Center
Wed 01:02:38 AM 30.7614 -99.1122 103° East 484 557 35,000  Level Houston Center
Wed 01:03:39 AM 30.7325 -98.9592 102° East 484 557 35,000  Level Houston Center
Wed 01:04:39 AM 30.7031 -98.8061 103° East 481 554 35,000  Level Houston Center
Wed 01:05:39 AM 30.6725 -98.6503 103° East 489 563 35,000  Level Houston Center
Wed 01:06:39 AM 30.6425 -98.4958 103° East 488 562 35,000  Level Houston Center
Wed 01:07:40 AM 30.6122 -98.3417 103° East 487 560 35,000  Level Houston Center
Wed 01:08:40 AM 30.5817 -98.1858 103° East 490 564 35,000  Level Houston Center
Wed 01:09:40 AM 30.5461 -98.0325 105° East 490 564 35,000  Level Houston Center
Wed 01:10:40 AM 30.5114 -97.8797 105° East 488 562 35,000 -1,190 Level Houston Center
Wed 01:11:41 AM 30.4761 -97.7244 105° East 493 567 32,600 -2,331 Descending Houston Center
Wed 01:12:41 AM 30.4403 -97.5686 105° East 498 573 30,300 -2,250 Descending Houston Center
Wed 01:13:41 AM 30.4058 -97.4169 105° East 490 564 28,100 -2,100 Descending Houston Center
Wed 01:14:41 AM 30.3728 -97.2731 105° East 470 541 26,100 -1,900 Descending Houston Center
Wed 01:15:41 AM 30.3406 -97.1336 105° East 453 521 24,300 -1,835 Descending Houston Center
Wed 01:16:42 AM 30.3106 -97.0022 105° East 428 493 22,400 -1,875 Descending Houston Center
Wed 01:17:01 AM 30.2986 -96.9567 107° East 414 476 21,800 -1,700 Descending Houston Center
Wed 01:17:42 AM 30.2800 -96.8778 105° East 406 467 20,700 -1,842 Descending Houston Center
Wed 01:18:42 AM 30.2519 -96.7581 105° East 388 447 18,700 -1,950 Descending Houston Center
Wed 01:19:42 AM 30.2247 -96.6408 105° East 377 434 16,800 -1,884 Descending Houston Center
Wed 01:20:43 AM 30.1978 -96.5269 105° East 365 420 14,900 -1,835 Descending Houston Center
Wed 01:21:43 AM 30.1711 -96.4197 106° East 348 400 13,100 -1,850 Descending Houston Center
Wed 01:22:43 AM 30.1458 -96.3117 105° East 345 397 11,200 -1,500 Descending Houston Center
Wed 01:23:43 AM 30.1225 -96.2150 106° East 310 357 10,100 -1,400 Descending Houston Center
Wed 01:24:43 AM 30.1006 -96.1228 105° East 298 343 8,400 -1,558 Descending Houston Center
Wed 01:25:00 AM 30.0933 -96.0928 106° East 294 338 8,100 -1,091 Descending Houston Center
Wed 01:26:00 AM 30.0711 -96.0061 106° East 278 320 7,000 -865 Descending Houston Center
Wed 01:26:44 AM 30.0606 -95.9569 104° East 261 300 6,600 -865 Descending Houston Center
Wed 01:27:44 AM 30.0417 -95.8850 107° East 238 274 5,500 -1,095 Descending Houston Center
Wed 01:28:50 AM 30.0217 -95.7994 105° East 227 261 4,300 -756 Descending Houston Center
Wed 01:29:51 AM 30.0050 -95.7314 106° East 223 257 3,900 -209 Descending Houston Center
Wed 01:30:45 AM 29.9928 -95.6783 105° East 221 254 3,900  Level Houston Center
Wed 01:31:45 AM 29.9936 -95.6064 89° East 223 257 3,900 -300 Level Houston Center
Wed 01:32:45 AM 29.9942 -95.5389 89° East 218 251 3,300 -900 Descending Houston Center
Wed 01:33:45 AM 29.9944 -95.4792 90° East 203 234 2,100 -1,200 Descending Houston Center

Login

Don't have an account? Register now (free) for customized features, flight alerts, and more!